HTE weather

Esmeralda Tower I Helipad
Miguel Hidalgo, Distrito Federal, Mexico

Public forecast

Using degrees Celsius for public forecast. Weather courtesy of forecast.io.

METAR (pilot weather report)

Closest report is Licenciado Benito Juarez International Airport, 7.6 nm (14.0 km) E. Retrieved 2019/06/17 21:44 UTC (16 minutes ago):

MMMX 172144Z 03012KT 8SM SCT020TCU BKN200 28/05 A3019 NOSIG RMK 8/202 HZY

TAF (pilot weather forecast)

Forecast is more than 6 hours old.

Closest forecast is Licenciado Benito Juarez International Airport, 7.6 nm (14.0 km) E. Retrieved 2019/06/17 12:00 UTC (10 hours ago):

TAF MMMX 171000Z 1712/1818 00000KT P6SM SCT020 SCT200 TX27/1721Z TN16/1712Z FM171800 22010KT P6SM SCT020 SCT080 BKN200 PROB40 1723/1803 5SM -TSRA BKN020CB OVC080 FM180600 02005KT P6SM SCT025 SCT090 BKN220 BECMG 1810/1812 23004KT